sensor_id;sensor_type;location;lat;lon;timestamp;P1;durP1;ratioP1;P2;durP2;ratioP2
32297;SDS011;18782;48.984;8.548;2023-10-13T00:01:04;7.35;;;5.20;;
32297;SDS011;18782;48.984;8.548;2023-10-13T00:03:33;9.20;;;4.85;;
32297;SDS011;18782;48.984;8.548;2023-10-13T00:06:03;7.28;;;5.10;;
32297;SDS011;18782;48.984;8.548;2023-10-13T00:08:34;9.85;;;5.00;;
32297;SDS011;18782;48.984;8.548;2023-10-13T00:11:03;13.25;;;5.55;;
32297;SDS011;18782;48.984;8.548;2023-10-13T00:13:31;11.93;;;5.57;;
32297;SDS011;18782;48.984;8.548;2023-10-13T00:16:09;7.45;;;5.45;;
32297;SDS011;18782;48.984;8.548;2023-10-13T00:18:43;8.15;;;5.20;;
32297;SDS011;18782;48.984;8.548;2023-10-13T00:21:11;11.20;;;5.10;;
32297;SDS011;18782;48.984;8.548;2023-10-13T00:23:47;9.02;;;4.68;;
32297;SDS011;18782;48.984;8.548;2023-10-13T00:26:21;11.10;;;5.47;;
32297;SDS011;18782;48.984;8.548;2023-10-13T00:28:57;8.38;;;5.78;;
32297;SDS011;18782;48.984;8.548;2023-10-13T00:31:35;9.60;;;4.93;;
32297;SDS011;18782;48.984;8.548;2023-10-13T00:34:07;9.50;;;5.45;;
32297;SDS011;18782;48.984;8.548;2023-10-13T00:36:38;9.50;;;5.78;;
32297;SDS011;18782;48.984;8.548;2023-10-13T00:39:16;7.05;;;5.18;;
32297;SDS011;18782;48.984;8.548;2023-10-13T00:41:44;8.43;;;5.20;;
32297;SDS011;18782;48.984;8.548;2023-10-13T00:44:19;10.70;;;5.47;;
32297;SDS011;18782;48.984;8.548;2023-10-13T00:46:55;9.73;;;5.68;;
32297;SDS011;18782;48.984;8.548;2023-10-13T00:49:23;9.55;;;5.47;;
32297;SDS011;18782;48.984;8.548;2023-10-13T00:51:51;9.10;;;5.22;;
32297;SDS011;18782;48.984;8.548;2023-10-13T00:54:19;8.80;;;4.85;;
32297;SDS011;18782;48.984;8.548;2023-10-13T00:56:53;9.38;;;4.85;;
32297;SDS011;18782;48.984;8.548;2023-10-13T00:59:30;8.70;;;4.70;;
32297;SDS011;18782;48.984;8.548;2023-10-13T01:02:03;7.07;;;4.88;;
32297;SDS011;18782;48.984;8.548;2023-10-13T01:04:51;8.38;;;5.53;;
32297;SDS011;18782;48.984;8.548;2023-10-13T01:07:21;10.57;;;5.03;;
32297;SDS011;18782;48.984;8.548;2023-10-13T01:09:52;7.18;;;5.28;;
32297;SDS011;18782;48.984;8.548;2023-10-13T01:12:20;8.68;;;5.40;;
32297;SDS011;18782;48.984;8.548;2023-10-13T01:14:50;9.07;;;5.00;;
32297;SDS011;18782;48.984;8.548;2023-10-13T01:17:17;8.38;;;5.05;;
32297;SDS011;18782;48.984;8.548;2023-10-13T01:19:44;10.38;;;5.43;;
32297;SDS011;18782;48.984;8.548;2023-10-13T01:22:15;10.65;;;5.13;;
32297;SDS011;18782;48.984;8.548;2023-10-13T01:24:43;7.80;;;4.90;;
32297;SDS011;18782;48.984;8.548;2023-10-13T01:27:12;7.90;;;4.95;;
32297;SDS011;18782;48.984;8.548;2023-10-13T01:29:43;7.35;;;5.00;;
32297;SDS011;18782;48.984;8.548;2023-10-13T01:32:14;9.40;;;5.38;;
32297;SDS011;18782;48.984;8.548;2023-10-13T01:34:41;12.68;;;5.32;;
32297;SDS011;18782;48.984;8.548;2023-10-13T01:37:13;8.95;;;6.40;;
32297;SDS011;18782;48.984;8.548;2023-10-13T01:39:44;8.77;;;5.47;;
32297;SDS011;18782;48.984;8.548;2023-10-13T01:42:14;8.30;;;5.18;;
32297;SDS011;18782;48.984;8.548;2023-10-13T01:44:45;6.97;;;4.47;;
32297;SDS011;18782;48.984;8.548;2023-10-13T01:47:13;9.40;;;5.63;;
32297;SDS011;18782;48.984;8.548;2023-10-13T01:49:42;8.93;;;5.88;;
32297;SDS011;18782;48.984;8.548;2023-10-13T01:52:14;9.68;;;5.53;;
32297;SDS011;18782;48.984;8.548;2023-10-13T01:54:45;9.52;;;5.47;;
32297;SDS011;18782;48.984;8.548;2023-10-13T01:57:16;9.52;;;5.10;;
32297;SDS011;18782;48.984;8.548;2023-10-13T01:59:44;7.68;;;5.00;;
32297;SDS011;18782;48.984;8.548;2023-10-13T02:02:12;9.32;;;4.50;;
32297;SDS011;18782;48.984;8.548;2023-10-13T02:04:39;9.45;;;4.93;;
32297;SDS011;18782;48.984;8.548;2023-10-13T02:07:09;9.65;;;5.60;;
32297;SDS011;18782;48.984;8.548;2023-10-13T02:09:41;8.63;;;5.28;;
32297;SDS011;18782;48.984;8.548;2023-10-13T02:12:11;8.05;;;4.93;;
32297;SDS011;18782;48.984;8.548;2023-10-13T02:14:37;7.75;;;5.00;;
32297;SDS011;18782;48.984;8.548;2023-10-13T02:17:05;6.28;;;4.90;;
32297;SDS011;18782;48.984;8.548;2023-10-13T02:19:42;10.35;;;5.25;;
32297;SDS011;18782;48.984;8.548;2023-10-13T02:22:12;9.70;;;5.53;;
32297;SDS011;18782;48.984;8.548;2023-10-13T02:24:50;12.63;;;6.25;;
32297;SDS011;18782;48.984;8.548;2023-10-13T02:27:20;6.95;;;4.90;;
32297;SDS011;18782;48.984;8.548;2023-10-13T02:29:49;8.57;;;5.20;;
32297;SDS011;18782;48.984;8.548;2023-10-13T02:32:24;10.27;;;5.72;;
32297;SDS011;18782;48.984;8.548;2023-10-13T02:34:53;10.95;;;6.18;;
32297;SDS011;18782;48.984;8.548;2023-10-13T02:37:24;9.85;;;5.15;;
32297;SDS011;18782;48.984;8.548;2023-10-13T02:39:51;9.30;;;5.68;;
32297;SDS011;18782;48.984;8.548;2023-10-13T02:42:20;8.05;;;5.13;;
32297;SDS011;18782;48.984;8.548;2023-10-13T02:44:49;9.38;;;5.28;;
32297;SDS011;18782;48.984;8.548;2023-10-13T02:47:18;9.07;;;5.15;;
32297;SDS011;18782;48.984;8.548;2023-10-13T02:49:46;8.05;;;5.18;;
32297;SDS011;18782;48.984;8.548;2023-10-13T02:52:14;9.18;;;5.13;;
32297;SDS011;18782;48.984;8.548;2023-10-13T02:54:42;8.60;;;5.25;;
32297;SDS011;18782;48.984;8.548;2023-10-13T02:57:13;7.38;;;4.68;;
32297;SDS011;18782;48.984;8.548;2023-10-13T02:59:45;11.13;;;5.57;;
32297;SDS011;18782;48.984;8.548;2023-10-13T03:02:14;9.25;;;5.68;;
32297;SDS011;18782;48.984;8.548;2023-10-13T03:04:46;8.45;;;5.32;;
32297;SDS011;18782;48.984;8.548;2023-10-13T03:07:14;9.63;;;5.45;;
32297;SDS011;18782;48.984;8.548;2023-10-13T03:09:48;7.38;;;5.35;;
32297;SDS011;18782;48.984;8.548;2023-10-13T03:12:18;8.52;;;5.30;;
32297;SDS011;18782;48.984;8.548;2023-10-13T03:14:47;10.05;;;5.85;;
32297;SDS011;18782;48.984;8.548;2023-10-13T03:17:15;10.15;;;5.68;;
32297;SDS011;18782;48.984;8.548;2023-10-13T03:19:43;14.93;;;5.80;;
32297;SDS011;18782;48.984;8.548;2023-10-13T03:22:17;10.75;;;5.40;;
32297;SDS011;18782;48.984;8.548;2023-10-13T03:24:45;9.05;;;5.07;;
32297;SDS011;18782;48.984;8.548;2023-10-13T03:27:13;12.70;;;5.20;;
32297;SDS011;18782;48.984;8.548;2023-10-13T03:29:43;9.63;;;5.18;;
32297;SDS011;18782;48.984;8.548;2023-10-13T03:32:13;7.00;;;4.95;;
32297;SDS011;18782;48.984;8.548;2023-10-13T03:34:42;9.63;;;4.25;;
32297;SDS011;18782;48.984;8.548;2023-10-13T03:37:19;7.60;;;5.00;;
32297;SDS011;18782;48.984;8.548;2023-10-13T03:40:04;12.38;;;4.93;;
32297;SDS011;18782;48.984;8.548;2023-10-13T03:42:42;10.05;;;4.95;;
32297;SDS011;18782;48.984;8.548;2023-10-13T03:45:20;8.27;;;4.88;;
32297;SDS011;18782;48.984;8.548;2023-10-13T03:47:52;10.00;;;5.32;;
32297;SDS011;18782;48.984;8.548;2023-10-13T03:50:20;8.35;;;4.75;;
32297;SDS011;18782;48.984;8.548;2023-10-13T03:52:55;9.85;;;5.03;;
32297;SDS011;18782;48.984;8.548;2023-10-13T03:55:24;6.45;;;4.53;;
32297;SDS011;18782;48.984;8.548;2023-10-13T03:57:55;11.70;;;5.53;;
32297;SDS011;18782;48.984;8.548;2023-10-13T04:00:27;7.55;;;5.32;;
32297;SDS011;18782;48.984;8.548;2023-10-13T04:02:56;9.02;;;5.07;;
32297;SDS011;18782;48.984;8.548;2023-10-13T04:05:35;10.45;;;5.47;;
32297;SDS011;18782;48.984;8.548;2023-10-13T04:08:11;9.38;;;5.55;;
32297;SDS011;18782;48.984;8.548;2023-10-13T04:10:56;7.93;;;4.97;;
32297;SDS011;18782;48.984;8.548;2023-10-13T04:13:54;8.18;;;5.15;;
32297;SDS011;18782;48.984;8.548;2023-10-13T04:16:44;9.43;;;5.53;;
32297;SDS011;18782;48.984;8.548;2023-10-13T04:19:22;10.52;;;5.40;;
32297;SDS011;18782;48.984;8.548;2023-10-13T04:21:51;10.75;;;4.75;;
32297;SDS011;18782;48.984;8.548;2023-10-13T04:24:25;8.30;;;5.30;;
32297;SDS011;18782;48.984;8.548;2023-10-13T04:27:26;7.25;;;4.78;;
32297;SDS011;18782;48.984;8.548;2023-10-13T04:30:06;8.57;;;5.13;;
32297;SDS011;18782;48.984;8.548;2023-10-13T04:32:51;9.45;;;4.72;;
32297;SDS011;18782;48.984;8.548;2023-10-13T04:35:44;6.60;;;4.38;;
32297;SDS011;18782;48.984;8.548;2023-10-13T04:38:24;10.48;;;6.20;;
32297;SDS011;18782;48.984;8.548;2023-10-13T04:40:59;13.43;;;6.28;;
32297;SDS011;18782;48.984;8.548;2023-10-13T04:43:28;12.15;;;6.18;;
32297;SDS011;18782;48.984;8.548;2023-10-13T04:46:23;9.40;;;4.97;;
32297;SDS011;18782;48.984;8.548;2023-10-13T04:49:20;7.78;;;5.05;;
32297;SDS011;18782;48.984;8.548;2023-10-13T04:51:56;12.60;;;6.20;;
32297;SDS011;18782;48.984;8.548;2023-10-13T04:54:40;9.50;;;5.28;;
32297;SDS011;18782;48.984;8.548;2023-10-13T04:57:12;8.07;;;4.85;;
32297;SDS011;18782;48.984;8.548;2023-10-13T04:59:59;10.40;;;5.40;;
32297;SDS011;18782;48.984;8.548;2023-10-13T05:02:47;9.90;;;5.70;;
32297;SDS011;18782;48.984;8.548;2023-10-13T05:05:41;8.45;;;5.22;;
32297;SDS011;18782;48.984;8.548;2023-10-13T05:08:34;12.13;;;5.55;;
32297;SDS011;18782;48.984;8.548;2023-10-13T05:11:19;8.82;;;5.25;;
32297;SDS011;18782;48.984;8.548;2023-10-13T05:14:04;9.13;;;5.70;;
32297;SDS011;18782;48.984;8.548;2023-10-13T05:16:50;8.02;;;5.20;;
32297;SDS011;18782;48.984;8.548;2023-10-13T05:19:35;11.52;;;5.72;;
32297;SDS011;18782;48.984;8.548;2023-10-13T05:22:20;7.70;;;5.05;;
32297;SDS011;18782;48.984;8.548;2023-10-13T05:25:07;8.23;;;5.05;;
32297;SDS011;18782;48.984;8.548;2023-10-13T05:27:52;9.90;;;5.20;;
32297;SDS011;18782;48.984;8.548;2023-10-13T05:30:58;8.57;;;4.60;;
32297;SDS011;18782;48.984;8.548;2023-10-13T05:33:44;7.35;;;4.50;;
32297;SDS011;18782;48.984;8.548;2023-10-13T05:36:29;7.97;;;5.38;;
32297;SDS011;18782;48.984;8.548;2023-10-13T05:39:14;9.70;;;5.53;;
32297;SDS011;18782;48.984;8.548;2023-10-13T05:42:01;7.25;;;5.03;;
32297;SDS011;18782;48.984;8.548;2023-10-13T05:44:47;9.20;;;6.10;;
32297;SDS011;18782;48.984;8.548;2023-10-13T05:47:22;9.85;;;5.95;;
32297;SDS011;18782;48.984;8.548;2023-10-13T05:50:13;11.40;;;5.10;;
32297;SDS011;18782;48.984;8.548;2023-10-13T05:52:55;8.57;;;5.18;;
32297;SDS011;18782;48.984;8.548;2023-10-13T05:55:40;9.30;;;5.63;;
32297;SDS011;18782;48.984;8.548;2023-10-13T05:58:27;11.40;;;6.65;;
32297;SDS011;18782;48.984;8.548;2023-10-13T06:01:12;11.15;;;7.13;;
32297;SDS011;18782;48.984;8.548;2023-10-13T06:03:58;11.85;;;5.65;;
32297;SDS011;18782;48.984;8.548;2023-10-13T06:06:43;8.88;;;5.22;;
32297;SDS011;18782;48.984;8.548;2023-10-13T06:09:28;12.38;;;5.55;;
32297;SDS011;18782;48.984;8.548;2023-10-13T06:12:14;9.73;;;5.28;;
32297;SDS011;18782;48.984;8.548;2023-10-13T06:15:01;8.35;;;5.22;;
32297;SDS011;18782;48.984;8.548;2023-10-13T06:17:46;8.45;;;5.00;;
32297;SDS011;18782;48.984;8.548;2023-10-13T06:20:31;8.35;;;5.43;;
32297;SDS011;18782;48.984;8.548;2023-10-13T06:23:17;8.20;;;4.95;;
32297;SDS011;18782;48.984;8.548;2023-10-13T06:26:02;9.10;;;4.88;;
32297;SDS011;18782;48.984;8.548;2023-10-13T06:28:47;8.25;;;5.00;;
32297;SDS011;18782;48.984;8.548;2023-10-13T06:31:17;10.23;;;5.45;;
32297;SDS011;18782;48.984;8.548;2023-10-13T06:33:49;7.50;;;5.20;;
32297;SDS011;18782;48.984;8.548;2023-10-13T06:36:17;8.07;;;5.03;;
32297;SDS011;18782;48.984;8.548;2023-10-13T06:38:45;9.57;;;5.13;;
32297;SDS011;18782;48.984;8.548;2023-10-13T06:41:21;9.65;;;5.53;;
32297;SDS011;18782;48.984;8.548;2023-10-13T06:43:57;9.63;;;5.47;;
32297;SDS011;18782;48.984;8.548;2023-10-13T06:46:32;12.80;;;5.88;;
32297;SDS011;18782;48.984;8.548;2023-10-13T06:49:01;12.45;;;5.78;;
32297;SDS011;18782;48.984;8.548;2023-10-13T06:51:29;9.82;;;5.97;;
32297;SDS011;18782;48.984;8.548;2023-10-13T06:54:05;12.43;;;6.22;;
32297;SDS011;18782;48.984;8.548;2023-10-13T06:56:46;11.50;;;6.43;;
32297;SDS011;18782;48.984;8.548;2023-10-13T06:59:17;10.43;;;5.75;;
32297;SDS011;18782;48.984;8.548;2023-10-13T07:01:47;10.70;;;6.25;;
32297;SDS011;18782;48.984;8.548;2023-10-13T07:04:15;11.25;;;5.57;;
32297;SDS011;18782;48.984;8.548;2023-10-13T07:06:43;10.88;;;6.15;;
32297;SDS011;18782;48.984;8.548;2023-10-13T07:09:14;14.43;;;8.40;;
32297;SDS011;18782;48.984;8.548;2023-10-13T07:12:05;13.63;;;8.40;;
32297;SDS011;18782;48.984;8.548;2023-10-13T07:14:46;10.80;;;5.93;;
32297;SDS011;18782;48.984;8.548;2023-10-13T07:17:20;9.65;;;5.60;;
32297;SDS011;18782;48.984;8.548;2023-10-13T07:19:52;16.63;;;5.95;;
32297;SDS011;18782;48.984;8.548;2023-10-13T07:22:21;9.63;;;5.68;;
32297;SDS011;18782;48.984;8.548;2023-10-13T07:24:50;8.98;;;5.57;;
32297;SDS011;18782;48.984;8.548;2023-10-13T07:27:18;9.35;;;5.97;;
32297;SDS011;18782;48.984;8.548;2023-10-13T07:29:54;8.85;;;5.05;;
32297;SDS011;18782;48.984;8.548;2023-10-13T07:32:41;8.93;;;5.18;;
32297;SDS011;18782;48.984;8.548;2023-10-13T07:35:14;8.30;;;4.47;;
32297;SDS011;18782;48.984;8.548;2023-10-13T07:37:44;10.57;;;5.25;;
32297;SDS011;18782;48.984;8.548;2023-10-13T07:40:15;12.15;;;4.70;;
32297;SDS011;18782;48.984;8.548;2023-10-13T07:43:06;8.65;;;4.57;;
32297;SDS011;18782;48.984;8.548;2023-10-13T07:45:36;10.77;;;4.88;;
32297;SDS011;18782;48.984;8.548;2023-10-13T07:48:08;7.03;;;4.75;;
32297;SDS011;18782;48.984;8.548;2023-10-13T07:50:45;10.10;;;4.95;;
32297;SDS011;18782;48.984;8.548;2023-10-13T07:53:12;7.97;;;4.85;;
32297;SDS011;18782;48.984;8.548;2023-10-13T07:55:49;13.23;;;5.93;;
32297;SDS011;18782;48.984;8.548;2023-10-13T07:58:21;7.90;;;4.83;;
32297;SDS011;18782;48.984;8.548;2023-10-13T08:00:51;10.27;;;4.70;;
32297;SDS011;18782;48.984;8.548;2023-10-13T08:03:34;11.73;;;6.32;;
32297;SDS011;18782;48.984;8.548;2023-10-13T08:06:10;13.10;;;6.93;;
32297;SDS011;18782;48.984;8.548;2023-10-13T08:08:48;7.32;;;4.70;;
32297;SDS011;18782;48.984;8.548;2023-10-13T08:11:22;7.90;;;4.68;;
32297;SDS011;18782;48.984;8.548;2023-10-13T08:13:58;9.27;;;5.10;;
32297;SDS011;18782;48.984;8.548;2023-10-13T08:16:56;10.10;;;5.10;;
32297;SDS011;18782;48.984;8.548;2023-10-13T08:19:27;9.15;;;4.57;;
32297;SDS011;18782;48.984;8.548;2023-10-13T08:22:06;11.27;;;4.72;;
32297;SDS011;18782;48.984;8.548;2023-10-13T08:27:41;8.05;;;5.10;;
32297;SDS011;18782;48.984;8.548;2023-10-13T08:30:51;9.55;;;5.00;;
32297;SDS011;18782;48.984;8.548;2023-10-13T08:33:20;8.98;;;5.10;;
32297;SDS011;18782;48.984;8.548;2023-10-13T08:35:53;10.30;;;5.38;;
32297;SDS011;18782;48.984;8.548;2023-10-13T08:38:53;9.73;;;4.75;;
32297;SDS011;18782;48.984;8.548;2023-10-13T08:41:22;9.18;;;5.00;;
32297;SDS011;18782;48.984;8.548;2023-10-13T08:43:59;8.90;;;4.90;;
32297;SDS011;18782;48.984;8.548;2023-10-13T08:46:35;9.50;;;5.53;;
32297;SDS011;18782;48.984;8.548;2023-10-13T08:49:30;9.35;;;5.75;;
32297;SDS011;18782;48.984;8.548;2023-10-13T08:52:10;9.82;;;5.15;;
32297;SDS011;18782;48.984;8.548;2023-10-13T08:55:00;10.85;;;4.78;;
32297;SDS011;18782;48.984;8.548;2023-10-13T08:58:00;8.30;;;4.13;;
32297;SDS011;18782;48.984;8.548;2023-10-13T09:00:40;9.88;;;4.68;;
32297;SDS011;18782;48.984;8.548;2023-10-13T09:03:38;12.90;;;4.80;;
32297;SDS011;18782;48.984;8.548;2023-10-13T09:06:08;39.83;;;12.50;;
32297;SDS011;18782;48.984;8.548;2023-10-13T09:08:42;18.00;;;6.85;;
32297;SDS011;18782;48.984;8.548;2023-10-13T09:11:31;24.98;;;7.43;;
32297;SDS011;18782;48.984;8.548;2023-10-13T09:14:15;23.40;;;7.88;;
32297;SDS011;18782;48.984;8.548;2023-10-13T09:17:01;9.85;;;4.82;;
32297;SDS011;18782;48.984;8.548;2023-10-13T09:19:43;12.80;;;4.72;;
32297;SDS011;18782;48.984;8.548;2023-10-13T09:22:21;11.40;;;5.35;;
32297;SDS011;18782;48.984;8.548;2023-10-13T09:25:04;7.72;;;4.53;;
32297;SDS011;18782;48.984;8.548;2023-10-13T09:27:32;9.38;;;4.28;;
32297;SDS011;18782;48.984;8.548;2023-10-13T09:30:00;10.13;;;4.30;;
32297;SDS011;18782;48.984;8.548;2023-10-13T09:32:36;8.88;;;4.30;;
32297;SDS011;18782;48.984;8.548;2023-10-13T09:35:16;7.80;;;4.35;;
32297;SDS011;18782;48.984;8.548;2023-10-13T09:37:45;7.85;;;3.70;;
32297;SDS011;18782;48.984;8.548;2023-10-13T09:40:17;8.65;;;4.72;;
32297;SDS011;18782;48.984;8.548;2023-10-13T09:42:55;10.03;;;3.70;;
32297;SDS011;18782;48.984;8.548;2023-10-13T09:45:27;8.05;;;3.45;;
32297;SDS011;18782;48.984;8.548;2023-10-13T09:47:56;7.90;;;3.55;;
32297;SDS011;18782;48.984;8.548;2023-10-13T09:50:35;6.95;;;3.47;;
32297;SDS011;18782;48.984;8.548;2023-10-13T09:53:07;7.22;;;3.83;;
32297;SDS011;18782;48.984;8.548;2023-10-13T09:55:38;6.57;;;3.13;;
32297;SDS011;18782;48.984;8.548;2023-10-13T09:58:12;6.05;;;2.95;;
32297;SDS011;18782;48.984;8.548;2023-10-13T10:00:43;7.63;;;2.78;;
32297;SDS011;18782;48.984;8.548;2023-10-13T10:03:22;6.43;;;2.40;;
32297;SDS011;18782;48.984;8.548;2023-10-13T10:06:08;6.50;;;2.97;;
32297;SDS011;18782;48.984;8.548;2023-10-13T10:08:43;5.68;;;2.65;;
32297;SDS011;18782;48.984;8.548;2023-10-13T10:11:29;9.25;;;3.55;;
32297;SDS011;18782;48.984;8.548;2023-10-13T10:14:15;7.00;;;3.13;;
32297;SDS011;18782;48.984;8.548;2023-10-13T10:19:45;7.03;;;2.83;;
32297;SDS011;18782;48.984;8.548;2023-10-13T10:22:24;4.65;;;2.45;;
32297;SDS011;18782;48.984;8.548;2023-10-13T10:24:57;4.00;;;2.40;;
32297;SDS011;18782;48.984;8.548;2023-10-13T10:27:27;6.32;;;2.42;;
32297;SDS011;18782;48.984;8.548;2023-10-13T10:29:57;9.35;;;3.33;;
32297;SDS011;18782;48.984;8.548;2023-10-13T10:32:34;4.05;;;2.30;;
32297;SDS011;18782;48.984;8.548;2023-10-13T10:35:04;5.35;;;2.35;;
32297;SDS011;18782;48.984;8.548;2023-10-13T10:37:35;6.80;;;2.63;;
32297;SDS011;18782;48.984;8.548;2023-10-13T10:40:06;6.60;;;2.60;;
32297;SDS011;18782;48.984;8.548;2023-10-13T10:42:37;5.18;;;2.65;;
32297;SDS011;18782;48.984;8.548;2023-10-13T10:45:08;4.60;;;2.28;;
32297;SDS011;18782;48.984;8.548;2023-10-13T10:47:38;5.60;;;2.60;;
32297;SDS011;18782;48.984;8.548;2023-10-13T10:50:24;6.15;;;2.75;;
32297;SDS011;18782;48.984;8.548;2023-10-13T10:53:03;5.35;;;2.08;;
32297;SDS011;18782;48.984;8.548;2023-10-13T10:55:35;5.15;;;2.75;;
32297;SDS011;18782;48.984;8.548;2023-10-13T10:58:05;4.90;;;2.60;;
32297;SDS011;18782;48.984;8.548;2023-10-13T11:00:33;11.40;;;2.40;;
32297;SDS011;18782;48.984;8.548;2023-10-13T11:03:12;6.40;;;2.00;;
32297;SDS011;18782;48.984;8.548;2023-10-13T11:05:44;6.03;;;2.30;;
32297;SDS011;18782;48.984;8.548;2023-10-13T11:08:22;7.40;;;2.33;;
32297;SDS011;18782;48.984;8.548;2023-10-13T11:10:58;5.45;;;2.35;;
32297;SDS011;18782;48.984;8.548;2023-10-13T11:13:38;6.30;;;2.15;;
32297;SDS011;18782;48.984;8.548;2023-10-13T11:16:19;4.30;;;2.00;;
32297;SDS011;18782;48.984;8.548;2023-10-13T11:18:59;4.90;;;2.78;;
32297;SDS011;18782;48.984;8.548;2023-10-13T11:21:28;7.28;;;2.40;;
32297;SDS011;18782;48.984;8.548;2023-10-13T11:23:57;5.40;;;2.10;;
32297;SDS011;18782;48.984;8.548;2023-10-13T11:26:34;3.65;;;2.25;;
32297;SDS011;18782;48.984;8.548;2023-10-13T11:29:04;4.10;;;2.55;;
32297;SDS011;18782;48.984;8.548;2023-10-13T11:31:36;7.72;;;2.65;;
32297;SDS011;18782;48.984;8.548;2023-10-13T11:34:05;5.28;;;2.50;;
32297;SDS011;18782;48.984;8.548;2023-10-13T11:36:32;7.65;;;2.55;;
32297;SDS011;18782;48.984;8.548;2023-10-13T11:39:01;8.07;;;2.67;;
32297;SDS011;18782;48.984;8.548;2023-10-13T11:41:32;4.80;;;2.60;;
32297;SDS011;18782;48.984;8.548;2023-10-13T11:44:05;5.93;;;2.17;;
32297;SDS011;18782;48.984;8.548;2023-10-13T11:46:39;5.38;;;2.67;;
32297;SDS011;18782;48.984;8.548;2023-10-13T11:49:21;5.20;;;2.50;;
32297;SDS011;18782;48.984;8.548;2023-10-13T11:52:00;5.57;;;2.00;;
32297;SDS011;18782;48.984;8.548;2023-10-13T11:54:43;4.30;;;2.50;;
32297;SDS011;18782;48.984;8.548;2023-10-13T11:57:13;3.58;;;1.95;;
32297;SDS011;18782;48.984;8.548;2023-10-13T11:59:44;5.95;;;2.10;;
32297;SDS011;18782;48.984;8.548;2023-10-13T12:02:20;5.00;;;2.20;;
32297;SDS011;18782;48.984;8.548;2023-10-13T12:05:05;5.38;;;2.72;;
32297;SDS011;18782;48.984;8.548;2023-10-13T12:07:39;5.47;;;2.65;;
32297;SDS011;18782;48.984;8.548;2023-10-13T12:10:14;6.35;;;2.38;;
32297;SDS011;18782;48.984;8.548;2023-10-13T12:12:47;4.57;;;2.20;;
32297;SDS011;18782;48.984;8.548;2023-10-13T12:15:21;5.97;;;2.20;;
32297;SDS011;18782;48.984;8.548;2023-10-13T12:18:00;4.78;;;2.00;;
32297;SDS011;18782;48.984;8.548;2023-10-13T12:20:29;4.97;;;2.08;;
32297;SDS011;18782;48.984;8.548;2023-10-13T12:23:02;8.40;;;2.40;;
32297;SDS011;18782;48.984;8.548;2023-10-13T12:25:43;8.60;;;2.50;;
32297;SDS011;18782;48.984;8.548;2023-10-13T12:28:40;7.40;;;2.90;;
32297;SDS011;18782;48.984;8.548;2023-10-13T12:31:18;5.43;;;2.38;;
32297;SDS011;18782;48.984;8.548;2023-10-13T12:33:53;5.57;;;2.05;;
32297;SDS011;18782;48.984;8.548;2023-10-13T12:36:24;7.22;;;2.42;;
32297;SDS011;18782;48.984;8.548;2023-10-13T12:38:57;4.35;;;2.20;;
32297;SDS011;18782;48.984;8.548;2023-10-13T12:41:54;3.45;;;1.95;;
32297;SDS011;18782;48.984;8.548;2023-10-13T12:44:39;4.32;;;2.75;;
32297;SDS011;18782;48.984;8.548;2023-10-13T12:47:26;5.45;;;2.47;;
32297;SDS011;18782;48.984;8.548;2023-10-13T12:50:11;6.35;;;2.35;;
32297;SDS011;18782;48.984;8.548;2023-10-13T12:52:52;6.82;;;2.22;;
32297;SDS011;18782;48.984;8.548;2023-10-13T12:55:20;5.43;;;2.33;;
32297;SDS011;18782;48.984;8.548;2023-10-13T12:57:51;5.68;;;2.53;;
32297;SDS011;18782;48.984;8.548;2023-10-13T13:00:19;5.95;;;2.30;;
32297;SDS011;18782;48.984;8.548;2023-10-13T13:03:01;5.95;;;2.08;;
32297;SDS011;18782;48.984;8.548;2023-10-13T13:05:37;8.43;;;2.35;;
32297;SDS011;18782;48.984;8.548;2023-10-13T13:08:11;4.88;;;2.40;;
32297;SDS011;18782;48.984;8.548;2023-10-13T13:10:49;9.50;;;2.45;;
32297;SDS011;18782;48.984;8.548;2023-10-13T13:13:16;6.13;;;2.20;;
32297;SDS011;18782;48.984;8.548;2023-10-13T13:15:50;3.63;;;2.40;;
32297;SDS011;18782;48.984;8.548;2023-10-13T13:18:20;4.07;;;2.08;;
32297;SDS011;18782;48.984;8.548;2023-10-13T13:20:48;7.43;;;2.40;;
32297;SDS011;18782;48.984;8.548;2023-10-13T13:23:20;6.50;;;2.10;;
32297;SDS011;18782;48.984;8.548;2023-10-13T13:25:53;5.68;;;2.03;;
32297;SDS011;18782;48.984;8.548;2023-10-13T13:28:23;4.45;;;2.13;;
32297;SDS011;18782;48.984;8.548;2023-10-13T13:30:55;6.05;;;2.25;;
32297;SDS011;18782;48.984;8.548;2023-10-13T13:33:24;5.22;;;2.70;;
32297;SDS011;18782;48.984;8.548;2023-10-13T13:35:55;6.55;;;2.17;;
32297;SDS011;18782;48.984;8.548;2023-10-13T13:38:26;5.70;;;2.10;;
32297;SDS011;18782;48.984;8.548;2023-10-13T13:40:58;5.00;;;2.42;;
32297;SDS011;18782;48.984;8.548;2023-10-13T13:43:28;3.72;;;1.83;;
32297;SDS011;18782;48.984;8.548;2023-10-13T13:46:04;5.43;;;2.00;;
32297;SDS011;18782;48.984;8.548;2023-10-13T13:48:37;4.88;;;3.17;;
32297;SDS011;18782;48.984;8.548;2023-10-13T13:51:07;6.60;;;2.53;;
32297;SDS011;18782;48.984;8.548;2023-10-13T13:53:41;8.32;;;2.42;;
32297;SDS011;18782;48.984;8.548;2023-10-13T13:56:12;6.57;;;2.42;;
32297;SDS011;18782;48.984;8.548;2023-10-13T13:58:42;5.13;;;2.30;;
32297;SDS011;18782;48.984;8.548;2023-10-13T14:01:10;6.05;;;1.95;;
32297;SDS011;18782;48.984;8.548;2023-10-13T14:03:43;3.55;;;2.10;;
32297;SDS011;18782;48.984;8.548;2023-10-13T14:06:14;5.18;;;1.98;;
32297;SDS011;18782;48.984;8.548;2023-10-13T14:08:47;4.22;;;2.00;;
32297;SDS011;18782;48.984;8.548;2023-10-13T14:11:17;4.32;;;2.40;;
32297;SDS011;18782;48.984;8.548;2023-10-13T14:13:48;3.93;;;2.17;;
32297;SDS011;18782;48.984;8.548;2023-10-13T14:16:18;4.75;;;2.10;;
32297;SDS011;18782;48.984;8.548;2023-10-13T14:18:49;3.80;;;2.03;;
32297;SDS011;18782;48.984;8.548;2023-10-13T14:21:18;5.15;;;2.63;;
32297;SDS011;18782;48.984;8.548;2023-10-13T14:23:49;5.55;;;1.90;;
32297;SDS011;18782;48.984;8.548;2023-10-13T14:26:20;4.60;;;2.08;;
32297;SDS011;18782;48.984;8.548;2023-10-13T14:28:51;6.18;;;2.50;;
32297;SDS011;18782;48.984;8.548;2023-10-13T14:31:27;4.07;;;2.00;;
32297;SDS011;18782;48.984;8.548;2023-10-13T14:33:56;6.50;;;2.13;;
32297;SDS011;18782;48.984;8.548;2023-10-13T14:36:24;5.35;;;2.70;;
32297;SDS011;18782;48.984;8.548;2023-10-13T14:38:55;4.15;;;2.15;;
32297;SDS011;18782;48.984;8.548;2023-10-13T14:41:22;5.57;;;2.28;;
32297;SDS011;18782;48.984;8.548;2023-10-13T14:43:50;3.63;;;2.13;;
32297;SDS011;18782;48.984;8.548;2023-10-13T14:46:19;8.43;;;2.92;;
32297;SDS011;18782;48.984;8.548;2023-10-13T14:48:51;3.72;;;1.70;;
32297;SDS011;18782;48.984;8.548;2023-10-13T14:51:21;3.85;;;1.70;;
32297;SDS011;18782;48.984;8.548;2023-10-13T14:53:48;3.22;;;1.70;;
32297;SDS011;18782;48.984;8.548;2023-10-13T14:56:22;7.90;;;2.92;;
32297;SDS011;18782;48.984;8.548;2023-10-13T14:58:51;3.95;;;1.50;;
32297;SDS011;18782;48.984;8.548;2023-10-13T15:01:20;3.45;;;2.10;;
32297;SDS011;18782;48.984;8.548;2023-10-13T15:03:48;5.07;;;2.45;;
32297;SDS011;18782;48.984;8.548;2023-10-13T15:06:18;4.05;;;2.00;;
32297;SDS011;18782;48.984;8.548;2023-10-13T15:08:48;5.97;;;1.88;;
32297;SDS011;18782;48.984;8.548;2023-10-13T15:11:16;3.08;;;1.80;;
32297;SDS011;18782;48.984;8.548;2023-10-13T15:13:44;5.05;;;1.80;;
32297;SDS011;18782;48.984;8.548;2023-10-13T15:16:15;5.65;;;1.90;;
32297;SDS011;18782;48.984;8.548;2023-10-13T15:18:44;7.25;;;2.67;;
32297;SDS011;18782;48.984;8.548;2023-10-13T15:21:18;4.97;;;1.92;;
32297;SDS011;18782;48.984;8.548;2023-10-13T15:23:49;4.55;;;1.90;;
32297;SDS011;18782;48.984;8.548;2023-10-13T15:26:17;3.30;;;1.55;;
32297;SDS011;18782;48.984;8.548;2023-10-13T15:28:47;3.92;;;1.90;;
32297;SDS011;18782;48.984;8.548;2023-10-13T15:31:15;8.13;;;2.33;;
32297;SDS011;18782;48.984;8.548;2023-10-13T15:34:04;5.57;;;2.40;;
32297;SDS011;18782;48.984;8.548;2023-10-13T15:36:39;3.55;;;1.80;;
32297;SDS011;18782;48.984;8.548;2023-10-13T15:39:10;5.05;;;1.55;;